createdAt,value
2022-12-29T00:01:02.811Z,1.90
2022-12-29T00:03:31.084Z,2.10
2022-12-29T00:06:01.143Z,1.58
2022-12-29T00:08:40.435Z,1.88
2022-12-29T00:11:09.508Z,1.90
2022-12-29T00:13:55.061Z,1.65
2022-12-29T00:16:23.055Z,1.77
2022-12-29T00:18:51.039Z,2.00
2022-12-29T00:21:40.205Z,1.75
2022-12-29T00:24:34.081Z,2.05
2022-12-29T00:27:30.639Z,1.63
2022-12-29T00:30:16.859Z,1.92
2022-12-29T00:33:03.282Z,2.28
2022-12-29T00:35:33.611Z,1.77
2022-12-29T00:38:23.431Z,1.95
2022-12-29T00:41:08.982Z,1.50
2022-12-29T00:43:56.863Z,1.88
2022-12-29T00:46:24.793Z,1.90
2022-12-29T00:49:10.356Z,1.40
2022-12-29T00:51:38.218Z,2.42
2022-12-29T00:54:07.426Z,1.90
2022-12-29T00:56:35.328Z,2.00
2022-12-29T00:59:03.999Z,1.73
2022-12-29T01:01:32.098Z,1.42
2022-12-29T01:04:03.695Z,2.20
2022-12-29T01:06:32.654Z,1.75
2022-12-29T01:09:18.577Z,1.88
2022-12-29T01:11:47.881Z,2.00
2022-12-29T01:14:15.795Z,1.83
2022-12-29T01:16:43.842Z,1.67
2022-12-29T01:19:12.127Z,1.70
2022-12-29T01:21:40.015Z,1.80
2022-12-29T01:24:08.252Z,1.85
2022-12-29T01:26:36.154Z,1.70
2022-12-29T01:29:05.370Z,2.03
2022-12-29T01:31:33.273Z,1.70
2022-12-29T01:34:01.394Z,1.55
2022-12-29T01:36:29.265Z,1.83
2022-12-29T01:38:57.116Z,1.48
2022-12-29T01:41:25.348Z,1.80
2022-12-29T01:43:55.263Z,1.70
2022-12-29T01:46:29.024Z,1.67
2022-12-29T01:49:01.933Z,1.73
2022-12-29T01:51:32.334Z,1.50
2022-12-29T01:54:04.013Z,1.33
2022-12-29T01:56:32.281Z,1.50
2022-12-29T01:59:07.344Z,1.10
2022-12-29T02:01:37.242Z,1.40
2022-12-29T02:04:06.140Z,1.15
2022-12-29T02:06:39.138Z,1.88
2022-12-29T02:09:06.987Z,1.48
2022-12-29T02:11:38.399Z,1.45
2022-12-29T02:14:11.495Z,1.45
2022-12-29T02:16:59.555Z,1.58
2022-12-29T02:20:13.640Z,1.52
2022-12-29T02:22:57.038Z,1.23
2022-12-29T02:25:56.327Z,1.30
2022-12-29T02:28:54.219Z,1.48
2022-12-29T02:31:32.721Z,1.27
2022-12-29T02:34:14.962Z,1.33
2022-12-29T02:36:49.206Z,1.30
2022-12-29T02:39:26.268Z,1.38
2022-12-29T02:42:05.750Z,1.48
2022-12-29T02:44:40.428Z,1.17
2022-12-29T02:47:16.436Z,1.25
2022-12-29T02:49:54.744Z,1.58
2022-12-29T02:52:29.708Z,1.40
2022-12-29T02:54:56.878Z,1.83
2022-12-29T02:57:34.214Z,1.55
2022-12-29T03:00:08.424Z,1.20
2022-12-29T03:02:51.972Z,2.05
2022-12-29T03:05:30.374Z,1.13
2022-12-29T03:08:07.355Z,1.17
2022-12-29T03:10:43.396Z,1.60
2022-12-29T03:13:39.778Z,1.30
2022-12-29T03:16:15.448Z,1.30
2022-12-29T03:18:51.763Z,1.63
2022-12-29T03:21:44.911Z,1.40
2022-12-29T03:24:14.444Z,1.40
2022-12-29T03:26:44.943Z,1.00
2022-12-29T03:29:14.525Z,1.10
2022-12-29T03:31:44.727Z,1.45
2022-12-29T03:34:15.325Z,2.08
2022-12-29T03:36:49.684Z,1.50
2022-12-29T03:39:20.220Z,1.27
2022-12-29T03:41:50.532Z,1.33
2022-12-29T03:44:18.675Z,1.73
2022-12-29T03:46:46.543Z,1.45
2022-12-29T03:49:15.770Z,1.52
2022-12-29T03:51:43.689Z,1.60
2022-12-29T03:54:11.560Z,1.65
2022-12-29T03:56:39.411Z,1.65
2022-12-29T03:59:07.284Z,1.80
2022-12-29T04:01:35.343Z,1.40
2022-12-29T04:04:03.272Z,1.35
2022-12-29T04:06:32.510Z,1.67
2022-12-29T04:09:00.762Z,1.35
2022-12-29T04:11:33.038Z,2.00
2022-12-29T04:14:01.351Z,1.42
2022-12-29T04:16:29.175Z,2.13
2022-12-29T04:18:57.015Z,1.48
2022-12-29T04:21:24.919Z,2.38
2022-12-29T04:23:54.166Z,1.60
2022-12-29T04:26:22.056Z,1.67
2022-12-29T04:28:50.038Z,1.95
2022-12-29T04:31:17.963Z,1.70
2022-12-29T04:33:46.618Z,1.58
2022-12-29T04:36:14.969Z,1.85
2022-12-29T04:38:42.878Z,1.50
2022-12-29T04:41:12.441Z,2.15
2022-12-29T04:43:40.312Z,1.52
2022-12-29T04:46:08.455Z,2.28
2022-12-29T04:48:36.626Z,1.50
2022-12-29T04:51:04.960Z,1.70
2022-12-29T04:53:34.143Z,2.00
2022-12-29T04:56:02.153Z,1.83
2022-12-29T04:58:31.536Z,1.95
2022-12-29T05:00:59.977Z,1.77
2022-12-29T05:03:28.532Z,1.70
2022-12-29T05:05:56.987Z,1.88
2022-12-29T05:08:28.291Z,1.60
2022-12-29T05:10:56.972Z,1.70
2022-12-29T05:13:24.835Z,2.03
2022-12-29T05:15:55.105Z,2.20
2022-12-29T05:18:23.146Z,1.75
2022-12-29T05:20:51.563Z,2.40
2022-12-29T05:23:19.508Z,1.98
2022-12-29T05:25:47.789Z,2.05
2022-12-29T05:28:16.368Z,1.50
2022-12-29T05:30:49.580Z,1.48
2022-12-29T05:33:18.850Z,1.90
2022-12-29T05:35:47.313Z,1.65
2022-12-29T05:38:15.261Z,1.77
2022-12-29T05:40:43.282Z,1.73
2022-12-29T05:43:11.149Z,1.58
2022-12-29T05:45:39.178Z,1.63
2022-12-29T05:48:07.333Z,1.63
2022-12-29T05:50:36.653Z,1.67
2022-12-29T05:53:04.568Z,1.83
2022-12-29T05:55:32.466Z,1.90
2022-12-29T05:58:01.144Z,1.92
2022-12-29T06:00:29.151Z,1.80
2022-12-29T06:02:57.059Z,1.85
2022-12-29T06:05:25.348Z,2.10
2022-12-29T06:07:54.918Z,1.90
2022-12-29T06:10:22.861Z,1.80
2022-12-29T06:12:50.735Z,1.52
2022-12-29T06:15:19.234Z,2.22
2022-12-29T06:17:47.409Z,1.65
2022-12-29T06:20:15.285Z,1.58
2022-12-29T06:22:43.135Z,1.80
2022-12-29T06:25:12.639Z,1.80
2022-12-29T06:27:40.552Z,1.85
2022-12-29T06:30:09.942Z,1.48
2022-12-29T06:32:37.887Z,2.58
2022-12-29T06:35:07.246Z,1.92
2022-12-29T06:37:35.129Z,1.70
2022-12-29T06:40:03.028Z,1.40
2022-12-29T06:42:32.224Z,2.47
2022-12-29T06:45:02.382Z,1.60
2022-12-29T06:47:30.384Z,1.83
2022-12-29T06:49:58.281Z,1.30
2022-12-29T06:52:26.136Z,1.65
2022-12-29T06:54:54.185Z,1.63
2022-12-29T06:57:22.126Z,2.03
2022-12-29T06:59:51.376Z,1.40
2022-12-29T07:02:20.538Z,2.00
2022-12-29T07:04:48.623Z,1.58
2022-12-29T07:07:16.966Z,1.92
2022-12-29T07:09:45.376Z,1.35
2022-12-29T07:12:13.226Z,1.77
2022-12-29T07:14:43.466Z,2.10
2022-12-29T07:17:13.462Z,1.40
2022-12-29T07:19:42.689Z,1.67
2022-12-29T07:22:11.822Z,1.67
2022-12-29T07:24:40.126Z,1.33
2022-12-29T07:27:08.073Z,1.85
2022-12-29T07:29:36.075Z,1.77
2022-12-29T07:32:04.028Z,1.50
2022-12-29T07:34:33.304Z,1.90
2022-12-29T07:37:01.216Z,1.75
2022-12-29T07:39:29.724Z,1.65
2022-12-29T07:42:04.303Z,1.65
2022-12-29T07:44:32.935Z,1.60
2022-12-29T07:47:01.586Z,1.67
2022-12-29T07:49:30.398Z,2.15
2022-12-29T07:51:59.675Z,1.80
2022-12-29T07:54:28.162Z,1.67
2022-12-29T07:56:56.095Z,1.55
2022-12-29T07:59:24.598Z,1.52
2022-12-29T08:01:52.604Z,1.48
2022-12-29T08:04:20.927Z,1.55
2022-12-29T08:06:49.364Z,1.52
2022-12-29T08:09:22.663Z,1.80
2022-12-29T08:11:52.811Z,1.88
2022-12-29T08:14:21.099Z,1.90
2022-12-29T08:16:48.998Z,1.40
2022-12-29T08:19:17.057Z,1.50
2022-12-29T08:21:45.601Z,1.58
2022-12-29T08:24:13.488Z,1.60
2022-12-29T08:26:43.063Z,1.67
2022-12-29T08:29:10.931Z,1.63
2022-12-29T08:31:39.386Z,1.42
2022-12-29T08:34:07.586Z,1.38
2022-12-29T08:36:35.523Z,1.60
2022-12-29T08:39:03.430Z,1.80
2022-12-29T08:41:31.461Z,1.67
2022-12-29T08:44:01.039Z,1.75
2022-12-29T08:46:29.716Z,1.70
2022-12-29T08:48:57.910Z,1.67
2022-12-29T08:51:26.348Z,1.42
2022-12-29T08:53:54.470Z,1.63
2022-12-29T08:56:22.421Z,2.00
2022-12-29T08:58:50.639Z,1.75
2022-12-29T09:01:21.339Z,1.90
2022-12-29T09:06:40.423Z,1.70
2022-12-29T09:09:08.955Z,1.75
2022-12-29T09:11:37.110Z,1.60
2022-12-29T09:14:05.557Z,1.75
2022-12-29T09:16:35.694Z,1.60
2022-12-29T09:19:03.962Z,1.65
2022-12-29T09:21:32.754Z,1.42
2022-12-29T09:24:00.983Z,1.45
2022-12-29T09:26:28.853Z,1.92
2022-12-29T09:28:57.958Z,1.10
2022-12-29T09:31:26.566Z,1.33
2022-12-29T09:33:56.277Z,2.53
2022-12-29T09:36:24.607Z,1.70
2022-12-29T09:38:54.867Z,1.77
2022-12-29T09:41:28.645Z,1.45
2022-12-29T09:44:10.761Z,1.60
2022-12-29T09:46:42.545Z,1.38
2022-12-29T09:49:20.870Z,1.77
2022-12-29T09:55:00.069Z,1.65
2022-12-29T09:57:35.932Z,1.55
2022-12-29T10:00:08.932Z,1.52
2022-12-29T10:02:42.213Z,1.20
2022-12-29T10:05:31.889Z,1.33
2022-12-29T10:08:17.147Z,1.55
2022-12-29T10:10:52.834Z,1.48
2022-12-29T10:13:35.817Z,1.40
2022-12-29T10:16:11.729Z,1.73
2022-12-29T10:19:18.952Z,1.95
2022-12-29T10:22:02.400Z,1.60
2022-12-29T10:24:32.936Z,1.77
2022-12-29T10:27:01.641Z,1.60
2022-12-29T10:29:35.715Z,1.60
2022-12-29T10:32:08.082Z,2.05
2022-12-29T10:34:40.055Z,1.70
2022-12-29T10:37:19.421Z,1.42
2022-12-29T10:39:51.352Z,1.55
2022-12-29T10:42:27.838Z,2.38
2022-12-29T10:44:56.974Z,1.77
2022-12-29T10:47:29.874Z,1.20
2022-12-29T10:49:59.331Z,1.75
2022-12-29T10:52:29.747Z,1.30
2022-12-29T10:55:02.175Z,1.40
2022-12-29T10:57:35.636Z,1.90
2022-12-29T11:00:04.696Z,1.58
2022-12-29T11:02:53.873Z,1.63
2022-12-29T11:05:28.014Z,1.77
2022-12-29T11:08:02.861Z,1.30
2022-12-29T11:10:40.827Z,1.88
2022-12-29T11:13:15.591Z,1.30
2022-12-29T11:15:45.080Z,1.48
2022-12-29T11:18:25.214Z,1.60
2022-12-29T11:20:56.247Z,1.60
2022-12-29T11:23:33.576Z,1.50
2022-12-29T11:26:21.481Z,1.73
2022-12-29T11:29:05.690Z,1.90
2022-12-29T11:31:42.054Z,1.73
2022-12-29T11:34:10.891Z,1.52
2022-12-29T11:36:40.484Z,1.55
2022-12-29T11:39:41.289Z,1.70
2022-12-29T11:42:16.752Z,1.75
2022-12-29T11:44:47.934Z,2.13
2022-12-29T11:47:28.975Z,1.30
2022-12-29T11:50:01.478Z,1.40
2022-12-29T11:52:34.257Z,1.58
2022-12-29T11:55:06.238Z,1.30
2022-12-29T11:57:36.660Z,0.90
2022-12-29T12:00:17.535Z,1.25
2022-12-29T12:02:51.842Z,1.27
2022-12-29T12:05:31.954Z,1.40
2022-12-29T12:08:06.371Z,1.65
2022-12-29T12:10:43.347Z,1.08
2022-12-29T12:13:21.763Z,1.80
2022-12-29T12:15:57.051Z,1.23
2022-12-29T12:18:36.100Z,1.83
2022-12-29T12:21:12.566Z,1.35
2022-12-29T12:23:50.613Z,1.77
2022-12-29T12:26:23.495Z,2.17
2022-12-29T12:28:58.189Z,2.17
2022-12-29T12:31:40.668Z,1.88
2022-12-29T12:34:17.895Z,2.17
2022-12-29T12:37:12.849Z,2.40
2022-12-29T12:39:51.844Z,2.05
2022-12-29T12:42:35.377Z,2.45
2022-12-29T12:45:28.610Z,2.30
2022-12-29T12:48:09.984Z,2.08
2022-12-29T12:50:49.416Z,1.95
2022-12-29T12:53:44.390Z,1.90
2022-12-29T12:56:28.604Z,2.08
2022-12-29T12:59:09.452Z,1.60
2022-12-29T13:01:46.628Z,1.83
2022-12-29T13:04:44.090Z,1.70
2022-12-29T13:07:23.144Z,1.25
2022-12-29T13:10:02.568Z,1.50
2022-12-29T13:12:40.258Z,1.40
2022-12-29T13:15:21.173Z,1.50
2022-12-29T13:17:56.361Z,1.40
2022-12-29T13:20:32.958Z,1.77
2022-12-29T13:23:13.240Z,1.33
2022-12-29T13:25:47.087Z,1.58
2022-12-29T13:28:22.191Z,1.40
2022-12-29T13:30:59.585Z,1.80
2022-12-29T13:33:36.312Z,1.65
2022-12-29T13:36:09.428Z,1.67
2022-12-29T13:38:41.411Z,2.03
2022-12-29T13:41:13.770Z,2.00
2022-12-29T13:43:45.680Z,1.63
2022-12-29T13:46:20.061Z,2.13
2022-12-29T13:48:53.527Z,2.03
2022-12-29T13:51:27.763Z,2.20
2022-12-29T13:54:12.978Z,1.88
2022-12-29T13:56:44.464Z,2.20
2022-12-29T13:59:21.046Z,1.90
2022-12-29T14:01:57.216Z,2.00
2022-12-29T14:04:27.445Z,2.10
2022-12-29T14:07:04.830Z,1.55
2022-12-29T14:09:54.326Z,1.77
2022-12-29T14:12:30.494Z,1.85
2022-12-29T14:15:07.411Z,1.98
2022-12-29T14:17:37.509Z,2.42
2022-12-29T14:20:09.008Z,2.10
2022-12-29T14:22:37.095Z,2.00
2022-12-29T14:25:05.938Z,1.83
2022-12-29T14:27:53.353Z,2.40
2022-12-29T14:30:50.660Z,2.70
2022-12-29T14:33:21.158Z,2.63
2022-12-29T14:35:53.113Z,2.75
2022-12-29T14:38:25.011Z,1.60
2022-12-29T14:40:54.008Z,2.13
2022-12-29T14:43:29.603Z,1.90
2022-12-29T14:46:00.977Z,3.15
2022-12-29T14:48:38.186Z,1.75
2022-12-29T14:51:28.316Z,1.50
2022-12-29T14:53:56.297Z,1.90
2022-12-29T14:56:29.050Z,2.00
2022-12-29T14:58:59.281Z,1.95
2022-12-29T15:01:38.523Z,1.35
2022-12-29T15:04:18.880Z,1.77
2022-12-29T15:06:47.104Z,1.63
2022-12-29T15:09:25.884Z,1.80
2022-12-29T15:11:55.804Z,1.90
2022-12-29T15:14:36.100Z,1.67
2022-12-29T15:17:12.629Z,1.85
2022-12-29T15:19:41.805Z,1.80
2022-12-29T15:22:11.482Z,1.75
2022-12-29T15:24:43.658Z,1.95
2022-12-29T15:27:15.796Z,1.92
2022-12-29T15:29:45.551Z,1.95
2022-12-29T15:32:22.586Z,1.77
2022-12-29T15:34:53.926Z,2.40
2022-12-29T15:37:24.718Z,1.95
2022-12-29T15:39:54.665Z,1.70
2022-12-29T15:42:36.185Z,2.05
2022-12-29T15:45:11.375Z,2.63
2022-12-29T15:47:41.855Z,2.00
2022-12-29T15:50:28.389Z,3.00
2022-12-29T15:52:56.958Z,2.03
2022-12-29T15:55:32.438Z,2.05
2022-12-29T15:58:01.914Z,2.17
2022-12-29T16:00:32.539Z,2.50
2022-12-29T16:03:03.241Z,2.28
2022-12-29T16:05:37.017Z,2.30
2022-12-29T16:08:22.516Z,2.45
2022-12-29T16:10:51.374Z,2.72
2022-12-29T16:13:25.215Z,2.83
2022-12-29T16:15:57.994Z,2.67
2022-12-29T16:18:30.317Z,2.22
2022-12-29T16:20:59.647Z,1.77
2022-12-29T16:23:30.895Z,1.70
2022-12-29T16:25:59.480Z,2.53
2022-12-29T16:28:32.951Z,2.38
2022-12-29T16:31:04.861Z,2.58
2022-12-29T16:33:46.392Z,2.40
2022-12-29T16:36:53.571Z,1.92
2022-12-29T16:39:33.259Z,2.50
2022-12-29T16:42:01.435Z,1.90
2022-12-29T16:44:31.675Z,2.40
2022-12-29T16:47:03.796Z,1.80
2022-12-29T16:49:33.073Z,2.45
2022-12-29T16:52:02.726Z,5.22
2022-12-29T16:54:36.289Z,3.20
2022-12-29T16:57:05.605Z,2.97
2022-12-29T16:59:36.311Z,1.80
2022-12-29T17:02:09.636Z,2.53
2022-12-29T17:04:37.908Z,1.90
2022-12-29T17:07:17.518Z,1.80
2022-12-29T17:09:45.671Z,2.25
2022-12-29T17:12:18.616Z,2.15
2022-12-29T17:14:47.895Z,1.92
2022-12-29T17:17:19.647Z,1.95
2022-12-29T17:19:51.438Z,2.50
2022-12-29T17:22:25.025Z,2.47
2022-12-29T17:24:53.120Z,2.42
2022-12-29T17:27:26.339Z,2.30
2022-12-29T17:29:57.090Z,2.05
2022-12-29T17:32:25.350Z,2.10
2022-12-29T17:34:53.240Z,2.90
2022-12-29T17:37:43.236Z,3.05
2022-12-29T17:40:16.062Z,3.38
2022-12-29T17:42:46.137Z,2.85
2022-12-29T17:45:16.832Z,3.10
2022-12-29T17:47:44.883Z,3.83
2022-12-29T17:50:14.944Z,3.72
2022-12-29T17:52:45.838Z,3.20
2022-12-29T17:55:18.696Z,3.85
2022-12-29T17:57:47.018Z,4.80
2022-12-29T18:00:19.340Z,5.68
2022-12-29T18:02:48.255Z,5.72
2022-12-29T18:05:20.464Z,5.60
2022-12-29T18:07:54.362Z,5.32
2022-12-29T18:10:23.229Z,5.43
2022-12-29T18:12:52.719Z,4.85
2022-12-29T18:15:22.602Z,6.07
2022-12-29T18:17:50.830Z,17.85
2022-12-29T18:20:18.657Z,9.32
2022-12-29T18:22:46.511Z,8.73
2022-12-29T18:25:25.960Z,5.03
2022-12-29T18:27:53.917Z,4.82
2022-12-29T18:30:21.866Z,4.13
2022-12-29T18:32:49.720Z,3.25
2022-12-29T18:35:23.757Z,5.53
2022-12-29T18:37:51.609Z,6.70
2022-12-29T18:40:20.830Z,4.40
2022-12-29T18:42:48.686Z,2.47
2022-12-29T18:45:19.254Z,3.10
2022-12-29T18:47:47.132Z,6.20
2022-12-29T18:50:15.518Z,3.72
2022-12-29T18:52:43.977Z,2.33
2022-12-29T18:55:14.896Z,2.03
2022-12-29T18:57:44.831Z,2.60
2022-12-29T19:00:15.516Z,2.40
2022-12-29T19:02:44.207Z,2.10
2022-12-29T19:05:22.553Z,2.60
2022-12-29T19:07:50.623Z,2.63
2022-12-29T19:10:19.074Z,2.80
2022-12-29T19:12:48.375Z,4.45
2022-12-29T19:15:22.725Z,2.80
2022-12-29T19:18:15.984Z,2.75
2022-12-29T19:20:41.197Z,3.65
2022-12-29T19:23:11.524Z,2.88
2022-12-29T19:25:40.101Z,3.40
2022-12-29T19:28:17.163Z,4.50
2022-12-29T19:30:49.565Z,4.72
2022-12-29T19:33:20.117Z,4.03
2022-12-29T19:35:48.164Z,2.97
2022-12-29T19:38:16.843Z,2.10
2022-12-29T19:40:46.505Z,2.10
2022-12-29T19:43:16.436Z,2.55
2022-12-29T19:45:45.818Z,3.22
2022-12-29T19:48:17.092Z,2.65
2022-12-29T19:50:45.634Z,4.65
2022-12-29T19:53:13.628Z,2.08
2022-12-29T19:55:43.457Z,2.00
2022-12-29T19:58:11.531Z,1.15
2022-12-29T20:00:41.704Z,0.95
2022-12-29T20:03:09.849Z,0.90
2022-12-29T20:05:38.483Z,1.10
2022-12-29T20:08:06.546Z,1.90
2022-12-29T20:10:34.400Z,6.85
2022-12-29T20:13:04.409Z,5.50
2022-12-29T20:15:32.371Z,1.17
2022-12-29T20:18:13.212Z,1.20
2022-12-29T20:20:42.393Z,1.33
2022-12-29T20:23:10.392Z,0.80
2022-12-29T20:25:46.740Z,0.70
2022-12-29T20:28:16.971Z,1.15
2022-12-29T20:30:45.057Z,0.80
2022-12-29T20:33:14.269Z,0.80
2022-12-29T20:35:42.094Z,1.20
2022-12-29T20:38:10.025Z,0.57
2022-12-29T20:40:44.202Z,0.90
2022-12-29T20:43:15.663Z,0.70
2022-12-29T20:45:43.654Z,1.85
2022-12-29T20:48:11.558Z,0.93
2022-12-29T20:50:40.781Z,1.27
2022-12-29T20:53:08.667Z,1.00
2022-12-29T20:55:40.362Z,1.08
2022-12-29T20:58:25.038Z,0.90
2022-12-29T21:00:53.730Z,1.27
2022-12-29T21:03:21.927Z,0.90
2022-12-29T21:05:52.766Z,0.98
2022-12-29T21:08:21.103Z,1.00
2022-12-29T21:10:49.115Z,1.20
2022-12-29T21:13:17.709Z,0.90
2022-12-29T21:15:46.655Z,1.10
2022-12-29T21:18:14.788Z,1.20
2022-12-29T21:20:42.650Z,1.23
2022-12-29T21:23:11.902Z,0.90
2022-12-29T21:25:44.893Z,1.17
2022-12-29T21:28:13.082Z,0.95
2022-12-29T21:30:41.855Z,0.60
2022-12-29T21:33:09.881Z,0.80
2022-12-29T21:35:38.773Z,0.75
2022-12-29T21:38:06.637Z,0.90
2022-12-29T21:40:38.355Z,0.75
2022-12-29T21:43:07.126Z,0.63
2022-12-29T21:45:34.230Z,0.70
2022-12-29T21:48:23.948Z,0.90
2022-12-29T21:51:11.863Z,0.68
2022-12-29T21:53:41.362Z,1.00
2022-12-29T21:56:12.784Z,0.50
2022-12-29T21:59:00.842Z,0.70
2022-12-29T22:01:48.791Z,0.52
2022-12-29T22:04:36.216Z,0.45
2022-12-29T22:07:22.945Z,0.50
2022-12-29T22:10:08.409Z,0.60
2022-12-29T22:12:55.358Z,0.50
2022-12-29T22:15:23.916Z,0.50
2022-12-29T22:17:55.384Z,0.65
2022-12-29T22:20:25.709Z,0.40
2022-12-29T22:22:54.157Z,0.57
2022-12-29T22:25:22.827Z,0.60
2022-12-29T22:27:58.597Z,0.60
2022-12-29T22:30:27.300Z,0.50
2022-12-29T22:32:56.535Z,0.50
2022-12-29T22:35:24.786Z,0.55
2022-12-29T22:37:52.642Z,0.60
2022-12-29T22:40:20.509Z,0.60
2022-12-29T22:42:48.372Z,0.40
2022-12-29T22:45:17.757Z,0.63
2022-12-29T22:47:45.668Z,0.70
2022-12-29T22:50:13.510Z,0.40
2022-12-29T22:52:41.339Z,0.57
2022-12-29T22:55:09.759Z,0.60
2022-12-29T22:57:38.174Z,0.50
2022-12-29T23:00:09.025Z,0.70
2022-12-29T23:02:38.598Z,0.80
2022-12-29T23:05:07.311Z,0.60
2022-12-29T23:07:36.311Z,0.57
2022-12-29T23:10:05.021Z,0.40
2022-12-29T23:12:32.923Z,0.70
2022-12-29T23:15:00.801Z,0.40
2022-12-29T23:17:28.771Z,0.50
2022-12-29T23:19:57.968Z,0.40
2022-12-29T23:22:25.921Z,0.70
2022-12-29T23:24:53.823Z,0.40
2022-12-29T23:27:21.778Z,0.40
2022-12-29T23:29:49.699Z,0.55
2022-12-29T23:32:17.904Z,0.45
2022-12-29T23:34:45.756Z,0.50
2022-12-29T23:37:14.974Z,0.50
2022-12-29T23:39:42.863Z,0.60
2022-12-29T23:42:12.305Z,0.40
2022-12-29T23:44:40.180Z,0.50
2022-12-29T23:47:08.062Z,0.50
2022-12-29T23:49:35.911Z,0.65
2022-12-29T23:52:03.754Z,0.40
2022-12-29T23:54:32.910Z,0.47
2022-12-29T23:57:00.749Z,0.50
2022-12-29T23:59:28.729Z,0.52
